sensor_id;sensor_type;location;lat;lon;timestamp;temperature;humidity
32139;DHT22;18644;48.700;9.210;2023-08-20T00:00:36;24.40;58.50
32139;DHT22;18644;48.700;9.210;2023-08-20T00:03:07;24.40;58.70
32139;DHT22;18644;48.700;9.210;2023-08-20T00:05:38;24.40;58.80
32139;DHT22;18644;48.700;9.210;2023-08-20T00:08:05;24.40;58.90
32139;DHT22;18644;48.700;9.210;2023-08-20T00:10:33;24.30;58.90
32139;DHT22;18644;48.700;9.210;2023-08-20T00:13:00;24.30;59.00
32139;DHT22;18644;48.700;9.210;2023-08-20T00:15:27;24.30;59.10
32139;DHT22;18644;48.700;9.210;2023-08-20T00:17:55;24.30;59.30
32139;DHT22;18644;48.700;9.210;2023-08-20T00:20:23;24.20;59.40
32139;DHT22;18644;48.700;9.210;2023-08-20T00:22:51;24.20;59.40
32139;DHT22;18644;48.700;9.210;2023-08-20T00:25:18;24.20;59.40
32139;DHT22;18644;48.700;9.210;2023-08-20T00:27:45;24.20;59.50
32139;DHT22;18644;48.700;9.210;2023-08-20T00:30:12;24.10;59.60
32139;DHT22;18644;48.700;9.210;2023-08-20T00:32:40;24.10;59.80
32139;DHT22;18644;48.700;9.210;2023-08-20T00:35:08;24.10;59.90
32139;DHT22;18644;48.700;9.210;2023-08-20T00:37:35;24.10;60.00
32139;DHT22;18644;48.700;9.210;2023-08-20T00:40:02;24.10;60.00
32139;DHT22;18644;48.700;9.210;2023-08-20T00:42:31;24.00;60.00
32139;DHT22;18644;48.700;9.210;2023-08-20T00:44:58;24.00;60.10
32139;DHT22;18644;48.700;9.210;2023-08-20T00:47:25;24.00;60.20
32139;DHT22;18644;48.700;9.210;2023-08-20T00:49:52;24.00;60.50
32139;DHT22;18644;48.700;9.210;2023-08-20T00:52:20;24.00;60.60
32139;DHT22;18644;48.700;9.210;2023-08-20T00:54:49;24.00;60.60
32139;DHT22;18644;48.700;9.210;2023-08-20T00:57:18;23.90;60.60
32139;DHT22;18644;48.700;9.210;2023-08-20T00:59:47;23.90;60.80
32139;DHT22;18644;48.700;9.210;2023-08-20T01:02:15;23.90;61.10
32139;DHT22;18644;48.700;9.210;2023-08-20T01:04:42;23.90;61.40
32139;DHT22;18644;48.700;9.210;2023-08-20T01:07:17;23.90;61.80
32139;DHT22;18644;48.700;9.210;2023-08-20T01:09:53;23.90;62.00
32139;DHT22;18644;48.700;9.210;2023-08-20T01:12:29;23.90;61.70
32139;DHT22;18644;48.700;9.210;2023-08-20T01:14:56;23.90;61.40
32139;DHT22;18644;48.700;9.210;2023-08-20T01:17:23;23.90;61.50
32139;DHT22;18644;48.700;9.210;2023-08-20T01:19:50;23.90;61.60
32139;DHT22;18644;48.700;9.210;2023-08-20T01:22:52;23.90;61.60
32139;DHT22;18644;48.700;9.210;2023-08-20T01:25:58;23.90;62.50
32139;DHT22;18644;48.700;9.210;2023-08-20T01:28:36;23.90;61.80
32139;DHT22;18644;48.700;9.210;2023-08-20T01:31:05;23.80;61.30
32139;DHT22;18644;48.700;9.210;2023-08-20T01:33:32;23.80;61.30
32139;DHT22;18644;48.700;9.210;2023-08-20T01:36:00;23.80;61.50
32139;DHT22;18644;48.700;9.210;2023-08-20T01:38:27;23.80;61.40
32139;DHT22;18644;48.700;9.210;2023-08-20T01:40:53;23.80;61.40
32139;DHT22;18644;48.700;9.210;2023-08-20T01:43:21;23.80;61.50
32139;DHT22;18644;48.700;9.210;2023-08-20T01:45:49;23.70;61.40
32139;DHT22;18644;48.700;9.210;2023-08-20T01:48:16;23.70;61.50
32139;DHT22;18644;48.700;9.210;2023-08-20T01:50:43;23.70;61.60
32139;DHT22;18644;48.700;9.210;2023-08-20T01:53:11;23.70;61.60
32139;DHT22;18644;48.700;9.210;2023-08-20T01:55:38;23.70;61.60
32139;DHT22;18644;48.700;9.210;2023-08-20T01:58:05;23.60;61.70
32139;DHT22;18644;48.700;9.210;2023-08-20T02:00:31;23.60;61.70
32139;DHT22;18644;48.700;9.210;2023-08-20T02:03:00;23.60;61.70
32139;DHT22;18644;48.700;9.210;2023-08-20T02:05:27;23.60;61.80
32139;DHT22;18644;48.700;9.210;2023-08-20T02:07:54;23.50;61.60
32139;DHT22;18644;48.700;9.210;2023-08-20T02:10:21;23.50;61.60
32139;DHT22;18644;48.700;9.210;2023-08-20T02:12:48;23.50;61.70
32139;DHT22;18644;48.700;9.210;2023-08-20T02:15:15;23.50;61.80
32139;DHT22;18644;48.700;9.210;2023-08-20T02:17:42;23.50;61.90
32139;DHT22;18644;48.700;9.210;2023-08-20T02:20:10;23.40;62.10
32139;DHT22;18644;48.700;9.210;2023-08-20T02:22:37;23.40;62.10
32139;DHT22;18644;48.700;9.210;2023-08-20T02:25:04;23.40;62.00
32139;DHT22;18644;48.700;9.210;2023-08-20T02:27:32;23.40;62.20
32139;DHT22;18644;48.700;9.210;2023-08-20T02:29:59;23.40;62.30
32139;DHT22;18644;48.700;9.210;2023-08-20T02:32:26;23.30;63.00
32139;DHT22;18644;48.700;9.210;2023-08-20T02:34:54;23.30;62.40
32139;DHT22;18644;48.700;9.210;2023-08-20T02:37:22;23.30;62.40
32139;DHT22;18644;48.700;9.210;2023-08-20T02:39:49;23.30;62.30
32139;DHT22;18644;48.700;9.210;2023-08-20T02:42:16;23.20;62.10
32139;DHT22;18644;48.700;9.210;2023-08-20T02:44:42;23.20;62.10
32139;DHT22;18644;48.700;9.210;2023-08-20T02:47:09;23.20;62.10
32139;DHT22;18644;48.700;9.210;2023-08-20T02:49:36;23.20;62.10
32139;DHT22;18644;48.700;9.210;2023-08-20T02:52:03;23.10;62.10
32139;DHT22;18644;48.700;9.210;2023-08-20T02:54:32;23.10;62.20
32139;DHT22;18644;48.700;9.210;2023-08-20T02:57:00;23.10;62.10
32139;DHT22;18644;48.700;9.210;2023-08-20T02:59:26;23.10;62.10
32139;DHT22;18644;48.700;9.210;2023-08-20T03:01:53;23.00;62.10
32139;DHT22;18644;48.700;9.210;2023-08-20T03:04:20;23.00;62.10
32139;DHT22;18644;48.700;9.210;2023-08-20T03:06:47;23.00;62.20
32139;DHT22;18644;48.700;9.210;2023-08-20T03:09:14;22.90;62.20
32139;DHT22;18644;48.700;9.210;2023-08-20T03:11:42;22.90;62.40
32139;DHT22;18644;48.700;9.210;2023-08-20T03:14:09;22.90;62.70
32139;DHT22;18644;48.700;9.210;2023-08-20T03:16:36;22.90;62.70
32139;DHT22;18644;48.700;9.210;2023-08-20T03:19:04;22.90;62.70
32139;DHT22;18644;48.700;9.210;2023-08-20T03:21:30;22.80;62.70
32139;DHT22;18644;48.700;9.210;2023-08-20T03:23:57;22.80;62.80
32139;DHT22;18644;48.700;9.210;2023-08-20T03:26:24;22.80;62.90
32139;DHT22;18644;48.700;9.210;2023-08-20T03:28:52;22.70;63.10
32139;DHT22;18644;48.700;9.210;2023-08-20T03:31:19;22.70;63.30
32139;DHT22;18644;48.700;9.210;2023-08-20T03:33:46;22.70;63.40
32139;DHT22;18644;48.700;9.210;2023-08-20T03:36:13;22.70;63.60
32139;DHT22;18644;48.700;9.210;2023-08-20T03:38:40;22.70;63.80
32139;DHT22;18644;48.700;9.210;2023-08-20T03:41:06;22.70;64.10
32139;DHT22;18644;48.700;9.210;2023-08-20T03:43:33;22.70;64.40
32139;DHT22;18644;48.700;9.210;2023-08-20T03:46:02;22.70;64.10
32139;DHT22;18644;48.700;9.210;2023-08-20T03:48:29;22.60;63.80
32139;DHT22;18644;48.700;9.210;2023-08-20T03:50:56;22.60;63.60
32139;DHT22;18644;48.700;9.210;2023-08-20T03:53:23;22.60;63.40
32139;DHT22;18644;48.700;9.210;2023-08-20T03:55:50;22.60;63.50
32139;DHT22;18644;48.700;9.210;2023-08-20T03:58:17;22.50;63.60
32139;DHT22;18644;48.700;9.210;2023-08-20T04:00:44;22.50;63.60
32139;DHT22;18644;48.700;9.210;2023-08-20T04:03:12;22.50;63.50
32139;DHT22;18644;48.700;9.210;2023-08-20T04:05:39;22.40;63.30
32139;DHT22;18644;48.700;9.210;2023-08-20T04:08:07;22.40;63.30
32139;DHT22;18644;48.700;9.210;2023-08-20T04:10:34;22.40;63.60
32139;DHT22;18644;48.700;9.210;2023-08-20T04:13:01;22.40;63.80
32139;DHT22;18644;48.700;9.210;2023-08-20T04:15:28;22.40;63.90
32139;DHT22;18644;48.700;9.210;2023-08-20T04:17:54;22.30;63.90
32139;DHT22;18644;48.700;9.210;2023-08-20T04:20:23;22.30;63.90
32139;DHT22;18644;48.700;9.210;2023-08-20T04:22:49;22.30;64.20
32139;DHT22;18644;48.700;9.210;2023-08-20T04:25:16;22.30;64.40
32139;DHT22;18644;48.700;9.210;2023-08-20T04:27:43;22.30;64.50
32139;DHT22;18644;48.700;9.210;2023-08-20T04:30:11;22.30;64.30
32139;DHT22;18644;48.700;9.210;2023-08-20T04:32:38;22.30;64.10
32139;DHT22;18644;48.700;9.210;2023-08-20T04:35:06;22.20;64.00
32139;DHT22;18644;48.700;9.210;2023-08-20T04:37:35;22.20;63.90
32139;DHT22;18644;48.700;9.210;2023-08-20T04:40:02;22.20;63.90
32139;DHT22;18644;48.700;9.210;2023-08-20T04:42:30;22.20;64.00
32139;DHT22;18644;48.700;9.210;2023-08-20T04:44:57;22.20;64.10
32139;DHT22;18644;48.700;9.210;2023-08-20T04:47:24;22.20;64.10
32139;DHT22;18644;48.700;9.210;2023-08-20T04:49:51;22.10;64.20
32139;DHT22;18644;48.700;9.210;2023-08-20T04:52:18;22.10;64.30
32139;DHT22;18644;48.700;9.210;2023-08-20T04:54:47;22.10;64.50
32139;DHT22;18644;48.700;9.210;2023-08-20T04:57:14;22.10;64.70
32139;DHT22;18644;48.700;9.210;2023-08-20T04:59:41;22.10;64.80
32139;DHT22;18644;48.700;9.210;2023-08-20T05:02:10;22.10;64.70
32139;DHT22;18644;48.700;9.210;2023-08-20T05:04:37;22.10;64.90
32139;DHT22;18644;48.700;9.210;2023-08-20T05:07:05;22.10;65.10
32139;DHT22;18644;48.700;9.210;2023-08-20T05:09:32;22.20;65.30
32139;DHT22;18644;48.700;9.210;2023-08-20T05:12:01;22.20;65.50
32139;DHT22;18644;48.700;9.210;2023-08-20T05:14:27;22.20;65.70
32139;DHT22;18644;48.700;9.210;2023-08-20T05:16:54;22.20;65.80
32139;DHT22;18644;48.700;9.210;2023-08-20T05:19:21;22.20;66.10
32139;DHT22;18644;48.700;9.210;2023-08-20T05:21:48;22.30;66.40
32139;DHT22;18644;48.700;9.210;2023-08-20T05:24:15;22.30;66.70
32139;DHT22;18644;48.700;9.210;2023-08-20T05:26:42;22.30;66.90
32139;DHT22;18644;48.700;9.210;2023-08-20T05:29:10;22.40;67.20
32139;DHT22;18644;48.700;9.210;2023-08-20T05:31:37;22.40;67.40
32139;DHT22;18644;48.700;9.210;2023-08-20T05:34:04;22.50;67.50
32139;DHT22;18644;48.700;9.210;2023-08-20T05:36:31;22.50;67.80
32139;DHT22;18644;48.700;9.210;2023-08-20T05:38:57;22.60;68.20
32139;DHT22;18644;48.700;9.210;2023-08-20T05:41:24;22.70;68.40
32139;DHT22;18644;48.700;9.210;2023-08-20T05:43:51;22.70;68.50
32139;DHT22;18644;48.700;9.210;2023-08-20T05:46:19;22.80;68.70
32139;DHT22;18644;48.700;9.210;2023-08-20T05:48:46;22.90;68.90
32139;DHT22;18644;48.700;9.210;2023-08-20T05:51:13;23.00;69.00
32139;DHT22;18644;48.700;9.210;2023-08-20T05:53:40;23.10;68.80
32139;DHT22;18644;48.700;9.210;2023-08-20T05:56:06;23.20;68.90
32139;DHT22;18644;48.700;9.210;2023-08-20T05:58:33;23.20;68.70
32139;DHT22;18644;48.700;9.210;2023-08-20T06:01:00;23.30;68.80
32139;DHT22;18644;48.700;9.210;2023-08-20T06:03:28;23.40;68.80
32139;DHT22;18644;48.700;9.210;2023-08-20T06:05:57;23.50;69.00
32139;DHT22;18644;48.700;9.210;2023-08-20T06:08:23;23.50;69.00
32139;DHT22;18644;48.700;9.210;2023-08-20T06:10:50;23.60;69.00
32139;DHT22;18644;48.700;9.210;2023-08-20T06:13:17;23.70;69.00
32139;DHT22;18644;48.700;9.210;2023-08-20T06:15:44;23.80;69.20
32139;DHT22;18644;48.700;9.210;2023-08-20T06:18:11;23.90;69.30
32139;DHT22;18644;48.700;9.210;2023-08-20T06:20:39;24.00;69.30
32139;DHT22;18644;48.700;9.210;2023-08-20T06:23:07;24.10;69.30
32139;DHT22;18644;48.700;9.210;2023-08-20T06:25:34;24.20;69.40
32139;DHT22;18644;48.700;9.210;2023-08-20T06:28:01;24.30;69.60
32139;DHT22;18644;48.700;9.210;2023-08-20T06:30:27;24.40;69.70
32139;DHT22;18644;48.700;9.210;2023-08-20T06:32:54;24.60;69.70
32139;DHT22;18644;48.700;9.210;2023-08-20T06:35:21;24.70;69.50
32139;DHT22;18644;48.700;9.210;2023-08-20T06:37:49;24.80;69.50
32139;DHT22;18644;48.700;9.210;2023-08-20T06:40:16;24.90;69.60
32139;DHT22;18644;48.700;9.210;2023-08-20T06:42:43;25.10;69.70
32139;DHT22;18644;48.700;9.210;2023-08-20T06:45:10;25.20;69.40
32139;DHT22;18644;48.700;9.210;2023-08-20T06:47:37;25.40;69.20
32139;DHT22;18644;48.700;9.210;2023-08-20T06:50:04;25.50;69.30
32139;DHT22;18644;48.700;9.210;2023-08-20T06:52:32;25.60;69.30
32139;DHT22;18644;48.700;9.210;2023-08-20T06:55:00;25.70;68.90
32139;DHT22;18644;48.700;9.210;2023-08-20T06:57:27;25.90;69.00
32139;DHT22;18644;48.700;9.210;2023-08-20T06:59:54;26.00;68.70
32139;DHT22;18644;48.700;9.210;2023-08-20T07:02:21;26.20;68.50
32139;DHT22;18644;48.700;9.210;2023-08-20T07:04:48;26.30;68.60
32139;DHT22;18644;48.700;9.210;2023-08-20T07:07:15;26.50;68.90
32139;DHT22;18644;48.700;9.210;2023-08-20T07:09:42;26.60;68.90
32139;DHT22;18644;48.700;9.210;2023-08-20T07:12:10;26.70;68.80
32139;DHT22;18644;48.700;9.210;2023-08-20T07:14:37;26.90;68.40
32139;DHT22;18644;48.700;9.210;2023-08-20T07:17:04;27.00;67.50
32139;DHT22;18644;48.700;9.210;2023-08-20T07:19:31;27.20;67.40
32139;DHT22;18644;48.700;9.210;2023-08-20T07:21:57;27.30;67.00
32139;DHT22;18644;48.700;9.210;2023-08-20T07:24:24;27.40;66.60
32139;DHT22;18644;48.700;9.210;2023-08-20T07:26:51;27.50;66.40
32139;DHT22;18644;48.700;9.210;2023-08-20T07:29:26;27.60;66.30
32139;DHT22;18644;48.700;9.210;2023-08-20T07:31:55;27.80;66.40
32139;DHT22;18644;48.700;9.210;2023-08-20T07:34:22;27.90;66.50
32139;DHT22;18644;48.700;9.210;2023-08-20T07:36:49;28.00;66.30
32139;DHT22;18644;48.700;9.210;2023-08-20T07:39:16;28.10;66.30
32139;DHT22;18644;48.700;9.210;2023-08-20T07:41:42;28.30;66.30
32139;DHT22;18644;48.700;9.210;2023-08-20T07:44:09;28.40;65.70
32139;DHT22;18644;48.700;9.210;2023-08-20T07:46:37;28.50;65.30
32139;DHT22;18644;48.700;9.210;2023-08-20T07:49:04;28.60;65.60
32139;DHT22;18644;48.700;9.210;2023-08-20T07:51:31;28.70;65.70
32139;DHT22;18644;48.700;9.210;2023-08-20T07:53:58;28.80;65.30
32139;DHT22;18644;48.700;9.210;2023-08-20T07:56:26;29.00;65.10
32139;DHT22;18644;48.700;9.210;2023-08-20T07:58:53;29.00;64.60
32139;DHT22;18644;48.700;9.210;2023-08-20T08:01:20;29.20;64.40
32139;DHT22;18644;48.700;9.210;2023-08-20T08:03:49;29.30;64.30
32139;DHT22;18644;48.700;9.210;2023-08-20T08:06:16;29.40;64.00
32139;DHT22;18644;48.700;9.210;2023-08-20T08:08:43;29.50;64.10
32139;DHT22;18644;48.700;9.210;2023-08-20T08:11:10;29.60;63.90
32139;DHT22;18644;48.700;9.210;2023-08-20T08:13:37;29.70;63.40
32139;DHT22;18644;48.700;9.210;2023-08-20T08:16:04;29.80;63.30
32139;DHT22;18644;48.700;9.210;2023-08-20T08:18:31;29.90;63.10
32139;DHT22;18644;48.700;9.210;2023-08-20T08:21:00;30.00;62.80
32139;DHT22;18644;48.700;9.210;2023-08-20T08:23:26;30.10;63.60
32139;DHT22;18644;48.700;9.210;2023-08-20T08:25:54;30.20;62.70
32139;DHT22;18644;48.700;9.210;2023-08-20T08:28:20;30.40;62.50
32139;DHT22;18644;48.700;9.210;2023-08-20T08:30:47;30.50;62.20
32139;DHT22;18644;48.700;9.210;2023-08-20T08:33:14;30.60;61.50
32139;DHT22;18644;48.700;9.210;2023-08-20T08:35:41;30.60;61.00
32139;DHT22;18644;48.700;9.210;2023-08-20T08:38:09;30.70;61.00
32139;DHT22;18644;48.700;9.210;2023-08-20T08:40:37;30.70;60.30
32139;DHT22;18644;48.700;9.210;2023-08-20T08:43:06;30.70;60.60
32139;DHT22;18644;48.700;9.210;2023-08-20T08:45:33;30.70;60.20
32139;DHT22;18644;48.700;9.210;2023-08-20T08:48:02;30.70;60.10
32139;DHT22;18644;48.700;9.210;2023-08-20T08:50:30;30.80;60.20
32139;DHT22;18644;48.700;9.210;2023-08-20T08:52:58;30.90;59.90
32139;DHT22;18644;48.700;9.210;2023-08-20T08:55:27;31.00;60.20
32139;DHT22;18644;48.700;9.210;2023-08-20T08:57:54;31.10;60.40
32139;DHT22;18644;48.700;9.210;2023-08-20T09:00:21;31.20;60.40
32139;DHT22;18644;48.700;9.210;2023-08-20T09:02:48;31.30;59.90
32139;DHT22;18644;48.700;9.210;2023-08-20T09:05:14;31.40;59.70
32139;DHT22;18644;48.700;9.210;2023-08-20T09:07:42;31.50;60.00
32139;DHT22;18644;48.700;9.210;2023-08-20T09:10:10;31.60;59.60
32139;DHT22;18644;48.700;9.210;2023-08-20T09:12:38;31.80;59.20
32139;DHT22;18644;48.700;9.210;2023-08-20T09:15:10;31.80;58.30
32139;DHT22;18644;48.700;9.210;2023-08-20T09:17:37;31.90;58.40
32139;DHT22;18644;48.700;9.210;2023-08-20T09:20:05;32.00;58.80
32139;DHT22;18644;48.700;9.210;2023-08-20T09:22:35;32.10;58.20
32139;DHT22;18644;48.700;9.210;2023-08-20T09:25:03;32.20;58.00
32139;DHT22;18644;48.700;9.210;2023-08-20T09:27:39;32.30;58.10
32139;DHT22;18644;48.700;9.210;2023-08-20T09:30:07;32.40;56.60
32139;DHT22;18644;48.700;9.210;2023-08-20T09:32:35;32.50;57.10
32139;DHT22;18644;48.700;9.210;2023-08-20T09:35:02;32.50;57.00
32139;DHT22;18644;48.700;9.210;2023-08-20T09:37:29;32.60;56.70
32139;DHT22;18644;48.700;9.210;2023-08-20T09:39:59;32.70;56.60
32139;DHT22;18644;48.700;9.210;2023-08-20T09:42:27;32.70;56.80
32139;DHT22;18644;48.700;9.210;2023-08-20T09:44:56;32.90;57.00
32139;DHT22;18644;48.700;9.210;2023-08-20T09:47:26;32.90;56.90
32139;DHT22;18644;48.700;9.210;2023-08-20T09:49:54;33.10;56.80
32139;DHT22;18644;48.700;9.210;2023-08-20T09:52:27;33.10;56.20
32139;DHT22;18644;48.700;9.210;2023-08-20T09:55:00;33.30;56.60
32139;DHT22;18644;48.700;9.210;2023-08-20T09:57:35;33.40;56.00
32139;DHT22;18644;48.700;9.210;2023-08-20T10:00:05;33.40;55.80
32139;DHT22;18644;48.700;9.210;2023-08-20T10:02:39;33.60;56.20
32139;DHT22;18644;48.700;9.210;2023-08-20T10:05:08;33.70;55.60
32139;DHT22;18644;48.700;9.210;2023-08-20T10:07:36;33.80;55.30
32139;DHT22;18644;48.700;9.210;2023-08-20T10:10:05;33.90;55.10
32139;DHT22;18644;48.700;9.210;2023-08-20T10:12:33;34.00;55.00
32139;DHT22;18644;48.700;9.210;2023-08-20T10:15:01;34.10;54.50
32139;DHT22;18644;48.700;9.210;2023-08-20T10:17:33;34.20;54.00
32139;DHT22;18644;48.700;9.210;2023-08-20T10:20:02;34.30;54.00
32139;DHT22;18644;48.700;9.210;2023-08-20T10:22:33;34.30;53.50
32139;DHT22;18644;48.700;9.210;2023-08-20T10:25:00;34.50;52.80
32139;DHT22;18644;48.700;9.210;2023-08-20T10:27:31;34.60;53.50
32139;DHT22;18644;48.700;9.210;2023-08-20T10:30:00;34.70;53.60
32139;DHT22;18644;48.700;9.210;2023-08-20T10:32:46;34.70;52.90
32139;DHT22;18644;48.700;9.210;2023-08-20T10:35:15;34.90;52.60
32139;DHT22;18644;48.700;9.210;2023-08-20T10:38:04;35.00;52.70
32139;DHT22;18644;48.700;9.210;2023-08-20T10:40:51;35.10;51.70
32139;DHT22;18644;48.700;9.210;2023-08-20T10:43:32;35.10;52.20
32139;DHT22;18644;48.700;9.210;2023-08-20T10:46:08;35.20;50.50
32139;DHT22;18644;48.700;9.210;2023-08-20T10:48:42;35.30;50.60
32139;DHT22;18644;48.700;9.210;2023-08-20T10:51:11;35.40;50.90
32139;DHT22;18644;48.700;9.210;2023-08-20T10:53:40;35.50;50.40
32139;DHT22;18644;48.700;9.210;2023-08-20T10:56:13;35.50;50.00
32139;DHT22;18644;48.700;9.210;2023-08-20T10:58:45;35.60;48.90
32139;DHT22;18644;48.700;9.210;2023-08-20T11:01:20;35.60;48.40
32139;DHT22;18644;48.700;9.210;2023-08-20T11:03:50;35.70;48.70
32139;DHT22;18644;48.700;9.210;2023-08-20T11:06:18;35.80;48.10
32139;DHT22;18644;48.700;9.210;2023-08-20T11:08:45;35.80;47.70
32139;DHT22;18644;48.700;9.210;2023-08-20T11:11:13;35.80;48.00
32139;DHT22;18644;48.700;9.210;2023-08-20T11:13:40;35.80;47.90
32139;DHT22;18644;48.700;9.210;2023-08-20T11:16:08;35.90;47.60
32139;DHT22;18644;48.700;9.210;2023-08-20T11:18:36;36.00;47.90
32139;DHT22;18644;48.700;9.210;2023-08-20T11:21:04;36.00;47.70
32139;DHT22;18644;48.700;9.210;2023-08-20T11:23:31;36.10;48.30
32139;DHT22;18644;48.700;9.210;2023-08-20T11:25:59;36.20;47.60
32139;DHT22;18644;48.700;9.210;2023-08-20T11:28:27;36.20;47.60
32139;DHT22;18644;48.700;9.210;2023-08-20T11:30:54;36.30;47.70
32139;DHT22;18644;48.700;9.210;2023-08-20T11:33:23;36.40;47.20
32139;DHT22;18644;48.700;9.210;2023-08-20T11:35:51;36.50;47.70
32139;DHT22;18644;48.700;9.210;2023-08-20T11:38:22;36.50;47.50
32139;DHT22;18644;48.700;9.210;2023-08-20T11:40:50;36.60;48.20
32139;DHT22;18644;48.700;9.210;2023-08-20T11:43:18;36.70;48.00
32139;DHT22;18644;48.700;9.210;2023-08-20T11:45:46;36.80;47.90
32139;DHT22;18644;48.700;9.210;2023-08-20T11:48:14;36.90;48.10
32139;DHT22;18644;48.700;9.210;2023-08-20T11:50:41;37.00;47.60
32139;DHT22;18644;48.700;9.210;2023-08-20T11:53:09;37.10;46.70
32139;DHT22;18644;48.700;9.210;2023-08-20T11:55:39;37.20;46.90
32139;DHT22;18644;48.700;9.210;2023-08-20T11:58:10;37.30;46.40
32139;DHT22;18644;48.700;9.210;2023-08-20T12:00:38;37.30;45.70
32139;DHT22;18644;48.700;9.210;2023-08-20T12:03:05;37.40;45.30
32139;DHT22;18644;48.700;9.210;2023-08-20T12:05:33;37.40;45.80
32139;DHT22;18644;48.700;9.210;2023-08-20T12:08:02;37.50;45.50
32139;DHT22;18644;48.700;9.210;2023-08-20T12:10:30;37.50;44.50
32139;DHT22;18644;48.700;9.210;2023-08-20T12:13:00;37.60;44.60
32139;DHT22;18644;48.700;9.210;2023-08-20T12:15:28;37.60;44.50
32139;DHT22;18644;48.700;9.210;2023-08-20T12:18:05;37.60;43.80
32139;DHT22;18644;48.700;9.210;2023-08-20T12:20:33;37.60;42.60
32139;DHT22;18644;48.700;9.210;2023-08-20T12:23:02;37.70;43.80
32139;DHT22;18644;48.700;9.210;2023-08-20T12:25:31;37.70;43.50
32139;DHT22;18644;48.700;9.210;2023-08-20T12:28:00;37.80;44.00
32139;DHT22;18644;48.700;9.210;2023-08-20T12:30:27;37.90;45.00
32139;DHT22;18644;48.700;9.210;2023-08-20T12:32:54;37.90;43.60
32139;DHT22;18644;48.700;9.210;2023-08-20T12:35:21;38.00;43.40
32139;DHT22;18644;48.700;9.210;2023-08-20T12:37:48;38.10;43.70
32139;DHT22;18644;48.700;9.210;2023-08-20T12:40:15;38.20;43.90
32139;DHT22;18644;48.700;9.210;2023-08-20T12:42:43;38.20;42.90
32139;DHT22;18644;48.700;9.210;2023-08-20T12:45:11;38.30;42.40
32139;DHT22;18644;48.700;9.210;2023-08-20T12:47:39;38.40;42.40
32139;DHT22;18644;48.700;9.210;2023-08-20T12:50:06;38.40;41.70
32139;DHT22;18644;48.700;9.210;2023-08-20T12:52:33;38.40;42.00
32139;DHT22;18644;48.700;9.210;2023-08-20T12:55:01;38.40;41.80
32139;DHT22;18644;48.700;9.210;2023-08-20T12:57:28;38.40;41.10
32139;DHT22;18644;48.700;9.210;2023-08-20T12:59:55;38.40;41.50
32139;DHT22;18644;48.700;9.210;2023-08-20T13:02:24;38.50;42.10
32139;DHT22;18644;48.700;9.210;2023-08-20T13:04:52;38.50;40.90
32139;DHT22;18644;48.700;9.210;2023-08-20T13:07:19;38.40;40.40
32139;DHT22;18644;48.700;9.210;2023-08-20T13:09:47;38.40;40.00
32139;DHT22;18644;48.700;9.210;2023-08-20T13:12:15;38.40;40.20
32139;DHT22;18644;48.700;9.210;2023-08-20T13:14:43;38.40;40.50
32139;DHT22;18644;48.700;9.210;2023-08-20T13:17:11;38.40;41.30
32139;DHT22;18644;48.700;9.210;2023-08-20T13:19:40;38.40;41.80
32139;DHT22;18644;48.700;9.210;2023-08-20T13:22:06;38.50;41.50
32139;DHT22;18644;48.700;9.210;2023-08-20T13:24:33;38.50;40.40
32139;DHT22;18644;48.700;9.210;2023-08-20T13:27:00;38.60;40.20
32139;DHT22;18644;48.700;9.210;2023-08-20T13:29:27;38.50;40.30
32139;DHT22;18644;48.700;9.210;2023-08-20T13:31:54;38.60;40.50
32139;DHT22;18644;48.700;9.210;2023-08-20T13:34:21;38.60;40.40
32139;DHT22;18644;48.700;9.210;2023-08-20T13:36:49;38.70;40.00
32139;DHT22;18644;48.700;9.210;2023-08-20T13:39:16;38.80;39.60
32139;DHT22;18644;48.700;9.210;2023-08-20T13:41:43;38.90;40.50
32139;DHT22;18644;48.700;9.210;2023-08-20T13:44:10;39.00;40.70
32139;DHT22;18644;48.700;9.210;2023-08-20T13:46:37;39.00;40.50
32139;DHT22;18644;48.700;9.210;2023-08-20T13:49:04;39.00;40.40
32139;DHT22;18644;48.700;9.210;2023-08-20T13:51:31;39.10;39.20
32139;DHT22;18644;48.700;9.210;2023-08-20T13:53:59;39.20;39.20
32139;DHT22;18644;48.700;9.210;2023-08-20T13:56:26;39.20;39.70
32139;DHT22;18644;48.700;9.210;2023-08-20T13:58:53;39.20;39.00
32139;DHT22;18644;48.700;9.210;2023-08-20T14:01:20;39.20;38.60
32139;DHT22;18644;48.700;9.210;2023-08-20T14:03:47;39.20;38.50
32139;DHT22;18644;48.700;9.210;2023-08-20T14:06:15;39.20;37.70
32139;DHT22;18644;48.700;9.210;2023-08-20T14:08:43;39.20;37.10
32139;DHT22;18644;48.700;9.210;2023-08-20T14:11:11;39.20;37.30
32139;DHT22;18644;48.700;9.210;2023-08-20T14:13:38;39.10;38.00
32139;DHT22;18644;48.700;9.210;2023-08-20T14:16:05;39.10;38.20
32139;DHT22;18644;48.700;9.210;2023-08-20T14:18:32;39.20;38.80
32139;DHT22;18644;48.700;9.210;2023-08-20T14:20:59;39.20;39.10
32139;DHT22;18644;48.700;9.210;2023-08-20T14:23:26;39.20;38.90
32139;DHT22;18644;48.700;9.210;2023-08-20T14:25:53;39.30;38.00
32139;DHT22;18644;48.700;9.210;2023-08-20T14:28:22;39.30;37.40
32139;DHT22;18644;48.700;9.210;2023-08-20T14:30:49;39.40;37.20
32139;DHT22;18644;48.700;9.210;2023-08-20T14:33:19;39.40;37.70
32139;DHT22;18644;48.700;9.210;2023-08-20T14:35:46;39.30;37.60
32139;DHT22;18644;48.700;9.210;2023-08-20T14:38:13;39.30;37.10
32139;DHT22;18644;48.700;9.210;2023-08-20T14:40:40;39.20;37.00
32139;DHT22;18644;48.700;9.210;2023-08-20T14:43:07;39.20;36.70
32139;DHT22;18644;48.700;9.210;2023-08-20T14:45:35;39.10;36.60
32139;DHT22;18644;48.700;9.210;2023-08-20T14:48:02;38.90;35.90
32139;DHT22;18644;48.700;9.210;2023-08-20T14:50:30;38.80;35.90
32139;DHT22;18644;48.700;9.210;2023-08-20T14:52:56;38.70;36.40
32139;DHT22;18644;48.700;9.210;2023-08-20T14:55:24;38.60;36.30
32139;DHT22;18644;48.700;9.210;2023-08-20T14:57:51;38.40;36.60
32139;DHT22;18644;48.700;9.210;2023-08-20T15:00:18;38.30;37.10
32139;DHT22;18644;48.700;9.210;2023-08-20T15:02:49;38.20;37.40
32139;DHT22;18644;48.700;9.210;2023-08-20T15:05:16;38.10;37.50
32139;DHT22;18644;48.700;9.210;2023-08-20T15:07:43;38.00;37.40
32139;DHT22;18644;48.700;9.210;2023-08-20T15:10:10;37.90;38.30
32139;DHT22;18644;48.700;9.210;2023-08-20T15:12:37;37.90;38.20
32139;DHT22;18644;48.700;9.210;2023-08-20T15:15:05;37.80;38.00
32139;DHT22;18644;48.700;9.210;2023-08-20T15:17:34;37.70;38.10
32139;DHT22;18644;48.700;9.210;2023-08-20T15:20:03;37.60;38.60
32139;DHT22;18644;48.700;9.210;2023-08-20T15:22:32;37.60;38.30
32139;DHT22;18644;48.700;9.210;2023-08-20T15:24:59;37.60;38.70
32139;DHT22;18644;48.700;9.210;2023-08-20T15:27:26;37.60;39.10
32139;DHT22;18644;48.700;9.210;2023-08-20T15:29:53;37.50;39.60
32139;DHT22;18644;48.700;9.210;2023-08-20T15:32:20;37.50;39.30
32139;DHT22;18644;48.700;9.210;2023-08-20T15:34:47;37.50;39.00